sensor_id;sensor_type;location;lat;lon;timestamp;P1;durP1;ratioP1;P2;durP2;ratioP2
11125;SDS011;5617;54.046;10.676;2023-11-21T00:01:02;5.03;;;3.50;;
11125;SDS011;5617;54.046;10.676;2023-11-21T00:03:11;4.07;;;3.67;;
11125;SDS011;5617;54.046;10.676;2023-11-21T00:05:21;3.67;;;3.37;;
11125;SDS011;5617;54.046;10.676;2023-11-21T00:07:30;3.53;;;3.23;;
11125;SDS011;5617;54.046;10.676;2023-11-21T00:09:37;3.80;;;3.27;;
11125;SDS011;5617;54.046;10.676;2023-11-21T00:11:46;3.20;;;2.90;;
11125;SDS011;5617;54.046;10.676;2023-11-21T00:13:55;3.33;;;3.03;;
11125;SDS011;5617;54.046;10.676;2023-11-21T00:16:04;3.30;;;3.00;;
11125;SDS011;5617;54.046;10.676;2023-11-21T00:18:14;3.50;;;3.20;;
11125;SDS011;5617;54.046;10.676;2023-11-21T00:20:23;4.30;;;3.27;;
11125;SDS011;5617;54.046;10.676;2023-11-21T00:22:31;3.90;;;3.20;;
11125;SDS011;5617;54.046;10.676;2023-11-21T00:24:39;2.90;;;2.70;;
11125;SDS011;5617;54.046;10.676;2023-11-21T00:26:48;3.37;;;3.07;;
11125;SDS011;5617;54.046;10.676;2023-11-21T00:29:03;3.60;;;2.90;;
11125;SDS011;5617;54.046;10.676;2023-11-21T00:31:14;3.37;;;3.07;;
11125;SDS011;5617;54.046;10.676;2023-11-21T00:33:23;3.07;;;2.80;;
11125;SDS011;5617;54.046;10.676;2023-11-21T00:35:32;4.10;;;3.03;;
11125;SDS011;5617;54.046;10.676;2023-11-21T00:37:39;3.67;;;3.30;;
11125;SDS011;5617;54.046;10.676;2023-11-21T00:39:47;3.10;;;2.80;;
11125;SDS011;5617;54.046;10.676;2023-11-21T00:41:55;3.03;;;2.73;;
11125;SDS011;5617;54.046;10.676;2023-11-21T00:44:05;3.30;;;3.00;;
11125;SDS011;5617;54.046;10.676;2023-11-21T00:46:14;4.03;;;3.10;;
11125;SDS011;5617;54.046;10.676;2023-11-21T00:48:23;2.87;;;2.63;;
11125;SDS011;5617;54.046;10.676;2023-11-21T00:50:30;2.40;;;2.13;;
11125;SDS011;5617;54.046;10.676;2023-11-21T00:52:39;3.97;;;2.93;;
11125;SDS011;5617;54.046;10.676;2023-11-21T00:54:47;2.90;;;2.70;;
11125;SDS011;5617;54.046;10.676;2023-11-21T00:56:56;3.20;;;2.90;;
11125;SDS011;5617;54.046;10.676;2023-11-21T00:59:06;4.60;;;3.27;;
11125;SDS011;5617;54.046;10.676;2023-11-21T01:01:14;3.30;;;3.00;;
11125;SDS011;5617;54.046;10.676;2023-11-21T01:03:22;4.07;;;3.00;;
11125;SDS011;5617;54.046;10.676;2023-11-21T01:05:31;3.70;;;3.37;;
11125;SDS011;5617;54.046;10.676;2023-11-21T01:07:38;4.07;;;3.50;;
11125;SDS011;5617;54.046;10.676;2023-11-21T01:09:46;3.77;;;3.43;;
11125;SDS011;5617;54.046;10.676;2023-11-21T01:11:55;6.20;;;3.70;;
11125;SDS011;5617;54.046;10.676;2023-11-21T01:14:03;4.30;;;3.47;;
11125;SDS011;5617;54.046;10.676;2023-11-21T01:16:15;3.83;;;3.43;;
11125;SDS011;5617;54.046;10.676;2023-11-21T01:18:24;4.03;;;3.73;;
11125;SDS011;5617;54.046;10.676;2023-11-21T01:20:34;3.90;;;3.40;;
11125;SDS011;5617;54.046;10.676;2023-11-21T01:22:42;3.93;;;3.20;;
11125;SDS011;5617;54.046;10.676;2023-11-21T01:24:51;4.60;;;3.43;;
11125;SDS011;5617;54.046;10.676;2023-11-21T01:27:00;3.70;;;3.20;;
11125;SDS011;5617;54.046;10.676;2023-11-21T01:29:09;3.63;;;3.30;;
11125;SDS011;5617;54.046;10.676;2023-11-21T01:31:18;3.53;;;3.23;;
11125;SDS011;5617;54.046;10.676;2023-11-21T01:33:27;3.77;;;3.40;;
11125;SDS011;5617;54.046;10.676;2023-11-21T01:35:35;3.37;;;2.83;;
11125;SDS011;5617;54.046;10.676;2023-11-21T01:37:44;3.70;;;3.07;;
11125;SDS011;5617;54.046;10.676;2023-11-21T01:39:52;3.37;;;3.07;;
11125;SDS011;5617;54.046;10.676;2023-11-21T01:42:01;3.07;;;2.77;;
11125;SDS011;5617;54.046;10.676;2023-11-21T01:44:11;3.83;;;3.10;;
11125;SDS011;5617;54.046;10.676;2023-11-21T01:46:20;4.40;;;3.20;;
11125;SDS011;5617;54.046;10.676;2023-11-21T01:48:29;3.40;;;3.07;;
11125;SDS011;5617;54.046;10.676;2023-11-21T01:50:37;4.30;;;3.30;;
11125;SDS011;5617;54.046;10.676;2023-11-21T01:52:46;3.50;;;2.93;;
11125;SDS011;5617;54.046;10.676;2023-11-21T01:54:55;4.90;;;3.40;;
11125;SDS011;5617;54.046;10.676;2023-11-21T01:57:05;4.07;;;3.50;;
11125;SDS011;5617;54.046;10.676;2023-11-21T01:59:16;3.40;;;3.10;;
11125;SDS011;5617;54.046;10.676;2023-11-21T02:01:27;3.83;;;3.20;;
11125;SDS011;5617;54.046;10.676;2023-11-21T02:03:36;4.33;;;3.50;;
11125;SDS011;5617;54.046;10.676;2023-11-21T02:05:44;3.97;;;3.67;;
11125;SDS011;5617;54.046;10.676;2023-11-21T02:07:52;4.60;;;3.70;;
11125;SDS011;5617;54.046;10.676;2023-11-21T02:10:01;4.47;;;3.73;;
11125;SDS011;5617;54.046;10.676;2023-11-21T02:12:09;3.10;;;2.73;;
11125;SDS011;5617;54.046;10.676;2023-11-21T02:14:18;3.43;;;3.13;;
11125;SDS011;5617;54.046;10.676;2023-11-21T02:16:29;3.47;;;3.17;;
11125;SDS011;5617;54.046;10.676;2023-11-21T02:18:38;3.83;;;2.70;;
11125;SDS011;5617;54.046;10.676;2023-11-21T02:20:47;2.93;;;2.73;;
11125;SDS011;5617;54.046;10.676;2023-11-21T02:22:57;3.47;;;3.17;;
11125;SDS011;5617;54.046;10.676;2023-11-21T02:25:05;3.13;;;2.80;;
11125;SDS011;5617;54.046;10.676;2023-11-21T02:27:14;3.23;;;2.80;;
11125;SDS011;5617;54.046;10.676;2023-11-21T02:29:28;3.20;;;2.80;;
11125;SDS011;5617;54.046;10.676;2023-11-21T02:31:36;2.83;;;2.60;;
11125;SDS011;5617;54.046;10.676;2023-11-21T02:34:05;2.70;;;2.50;;
11125;SDS011;5617;54.046;10.676;2023-11-21T02:36:13;2.63;;;2.40;;
11125;SDS011;5617;54.046;10.676;2023-11-21T02:38:23;2.90;;;2.60;;
11125;SDS011;5617;54.046;10.676;2023-11-21T02:40:31;2.43;;;2.23;;
11125;SDS011;5617;54.046;10.676;2023-11-21T02:42:39;2.50;;;2.30;;
11125;SDS011;5617;54.046;10.676;2023-11-21T02:44:47;2.53;;;2.20;;
11125;SDS011;5617;54.046;10.676;2023-11-21T02:46:56;3.47;;;2.00;;
11125;SDS011;5617;54.046;10.676;2023-11-21T02:49:05;4.67;;;2.80;;
11125;SDS011;5617;54.046;10.676;2023-11-21T02:51:16;2.63;;;2.43;;
11125;SDS011;5617;54.046;10.676;2023-11-21T02:53:26;2.30;;;2.13;;
11125;SDS011;5617;54.046;10.676;2023-11-21T02:55:34;2.37;;;2.13;;
11125;SDS011;5617;54.046;10.676;2023-11-21T02:57:42;2.97;;;2.40;;
11125;SDS011;5617;54.046;10.676;2023-11-21T02:59:51;2.77;;;2.57;;
11125;SDS011;5617;54.046;10.676;2023-11-21T03:01:59;3.20;;;2.87;;
11125;SDS011;5617;54.046;10.676;2023-11-21T03:04:08;3.83;;;2.90;;
11125;SDS011;5617;54.046;10.676;2023-11-21T03:06:16;2.73;;;2.30;;
11125;SDS011;5617;54.046;10.676;2023-11-21T03:08:25;3.03;;;2.63;;
11125;SDS011;5617;54.046;10.676;2023-11-21T03:10:33;3.57;;;3.27;;
11125;SDS011;5617;54.046;10.676;2023-11-21T03:12:42;4.00;;;3.60;;
11125;SDS011;5617;54.046;10.676;2023-11-21T03:14:51;4.33;;;3.13;;
11125;SDS011;5617;54.046;10.676;2023-11-21T03:17:00;4.20;;;3.33;;
11125;SDS011;5617;54.046;10.676;2023-11-21T03:19:11;3.63;;;3.33;;
11125;SDS011;5617;54.046;10.676;2023-11-21T03:21:21;3.70;;;3.40;;
11125;SDS011;5617;54.046;10.676;2023-11-21T03:23:31;3.73;;;2.97;;
11125;SDS011;5617;54.046;10.676;2023-11-21T03:25:39;3.00;;;2.67;;
11125;SDS011;5617;54.046;10.676;2023-11-21T03:27:47;3.20;;;2.90;;
11125;SDS011;5617;54.046;10.676;2023-11-21T03:29:56;2.80;;;2.60;;
11125;SDS011;5617;54.046;10.676;2023-11-21T03:32:03;3.20;;;2.90;;
11125;SDS011;5617;54.046;10.676;2023-11-21T03:34:15;4.03;;;3.20;;
11125;SDS011;5617;54.046;10.676;2023-11-21T03:36:28;4.23;;;3.50;;
11125;SDS011;5617;54.046;10.676;2023-11-21T03:38:37;5.23;;;4.20;;
11125;SDS011;5617;54.046;10.676;2023-11-21T03:40:46;4.47;;;4.07;;
11125;SDS011;5617;54.046;10.676;2023-11-21T03:42:55;5.13;;;4.17;;
11125;SDS011;5617;54.046;10.676;2023-11-21T03:45:04;5.30;;;3.97;;
11125;SDS011;5617;54.046;10.676;2023-11-21T03:47:13;3.60;;;3.30;;
11125;SDS011;5617;54.046;10.676;2023-11-21T03:49:22;4.50;;;3.60;;
11125;SDS011;5617;54.046;10.676;2023-11-21T03:51:30;3.73;;;3.33;;
11125;SDS011;5617;54.046;10.676;2023-11-21T03:53:41;3.40;;;3.10;;
11125;SDS011;5617;54.046;10.676;2023-11-21T03:55:50;5.00;;;3.57;;
11125;SDS011;5617;54.046;10.676;2023-11-21T03:57:59;3.40;;;3.10;;
11125;SDS011;5617;54.046;10.676;2023-11-21T04:00:07;4.83;;;3.33;;
11125;SDS011;5617;54.046;10.676;2023-11-21T04:02:17;3.43;;;3.00;;
11125;SDS011;5617;54.046;10.676;2023-11-21T04:04:25;3.70;;;3.07;;
11125;SDS011;5617;54.046;10.676;2023-11-21T04:06:33;3.50;;;2.90;;
11125;SDS011;5617;54.046;10.676;2023-11-21T04:08:43;3.40;;;3.10;;
11125;SDS011;5617;54.046;10.676;2023-11-21T04:10:52;4.07;;;3.67;;
11125;SDS011;5617;54.046;10.676;2023-11-21T04:13:01;5.40;;;3.70;;
11125;SDS011;5617;54.046;10.676;2023-11-21T04:15:10;4.77;;;4.37;;
11125;SDS011;5617;54.046;10.676;2023-11-21T04:17:20;5.07;;;4.60;;
11125;SDS011;5617;54.046;10.676;2023-11-21T04:19:29;5.00;;;4.60;;
11125;SDS011;5617;54.046;10.676;2023-11-21T04:21:36;5.37;;;4.87;;
11125;SDS011;5617;54.046;10.676;2023-11-21T04:23:46;4.80;;;4.40;;
11125;SDS011;5617;54.046;10.676;2023-11-21T04:25:54;5.60;;;5.00;;
11125;SDS011;5617;54.046;10.676;2023-11-21T04:28:04;5.63;;;5.13;;
11125;SDS011;5617;54.046;10.676;2023-11-21T04:30:12;5.83;;;5.33;;
11125;SDS011;5617;54.046;10.676;2023-11-21T04:32:21;5.23;;;4.80;;
11125;SDS011;5617;54.046;10.676;2023-11-21T04:34:29;5.77;;;4.70;;
11125;SDS011;5617;54.046;10.676;2023-11-21T04:36:39;5.17;;;4.67;;
11125;SDS011;5617;54.046;10.676;2023-11-21T04:38:48;5.30;;;4.60;;
11125;SDS011;5617;54.046;10.676;2023-11-21T04:40:57;4.77;;;4.37;;
11125;SDS011;5617;54.046;10.676;2023-11-21T04:43:10;4.70;;;4.30;;
11125;SDS011;5617;54.046;10.676;2023-11-21T04:45:22;4.80;;;4.40;;
11125;SDS011;5617;54.046;10.676;2023-11-21T04:47:30;4.50;;;4.10;;
11125;SDS011;5617;54.046;10.676;2023-11-21T04:49:42;4.87;;;4.37;;
11125;SDS011;5617;54.046;10.676;2023-11-21T04:51:51;4.57;;;4.13;;
11125;SDS011;5617;54.046;10.676;2023-11-21T04:54:00;4.97;;;4.17;;
11125;SDS011;5617;54.046;10.676;2023-11-21T04:56:09;6.37;;;4.90;;
11125;SDS011;5617;54.046;10.676;2023-11-21T04:58:17;4.80;;;4.33;;
11125;SDS011;5617;54.046;10.676;2023-11-21T05:00:27;5.77;;;4.57;;
11125;SDS011;5617;54.046;10.676;2023-11-21T05:02:37;5.23;;;4.37;;
11125;SDS011;5617;54.046;10.676;2023-11-21T05:04:45;5.97;;;4.30;;
11125;SDS011;5617;54.046;10.676;2023-11-21T05:06:53;8.07;;;4.27;;
11125;SDS011;5617;54.046;10.676;2023-11-21T05:09:03;4.07;;;3.67;;
11125;SDS011;5617;54.046;10.676;2023-11-21T05:11:22;5.83;;;3.50;;
11125;SDS011;5617;54.046;10.676;2023-11-21T05:13:31;3.97;;;3.57;;
11125;SDS011;5617;54.046;10.676;2023-11-21T05:15:41;3.73;;;3.27;;
11125;SDS011;5617;54.046;10.676;2023-11-21T05:17:50;3.80;;;3.20;;
11125;SDS011;5617;54.046;10.676;2023-11-21T05:19:59;5.17;;;3.17;;
11125;SDS011;5617;54.046;10.676;2023-11-21T05:22:10;3.70;;;2.80;;
11125;SDS011;5617;54.046;10.676;2023-11-21T05:24:20;5.30;;;3.07;;
11125;SDS011;5617;54.046;10.676;2023-11-21T05:26:28;3.40;;;3.10;;
11125;SDS011;5617;54.046;10.676;2023-11-21T05:28:35;4.10;;;3.10;;
11125;SDS011;5617;54.046;10.676;2023-11-21T05:30:44;3.23;;;2.50;;
11125;SDS011;5617;54.046;10.676;2023-11-21T05:32:53;3.77;;;2.77;;
11125;SDS011;5617;54.046;10.676;2023-11-21T05:35:04;3.53;;;3.20;;
11125;SDS011;5617;54.046;10.676;2023-11-21T05:37:16;4.27;;;3.07;;
11125;SDS011;5617;54.046;10.676;2023-11-21T05:39:28;4.10;;;2.90;;
11125;SDS011;5617;54.046;10.676;2023-11-21T05:41:40;4.53;;;3.07;;
11125;SDS011;5617;54.046;10.676;2023-11-21T05:43:50;4.63;;;3.00;;
11125;SDS011;5617;54.046;10.676;2023-11-21T05:45:58;3.27;;;2.57;;
11125;SDS011;5617;54.046;10.676;2023-11-21T05:48:07;3.20;;;2.90;;
11125;SDS011;5617;54.046;10.676;2023-11-21T05:50:16;4.27;;;3.00;;
11125;SDS011;5617;54.046;10.676;2023-11-21T05:52:25;3.00;;;2.67;;
11125;SDS011;5617;54.046;10.676;2023-11-21T05:54:34;3.00;;;2.70;;
11125;SDS011;5617;54.046;10.676;2023-11-21T05:56:43;4.00;;;3.10;;
11125;SDS011;5617;54.046;10.676;2023-11-21T05:58:51;3.50;;;2.97;;
11125;SDS011;5617;54.046;10.676;2023-11-21T06:00:59;4.23;;;3.03;;
11125;SDS011;5617;54.046;10.676;2023-11-21T06:03:08;3.30;;;3.00;;
11125;SDS011;5617;54.046;10.676;2023-11-21T06:05:18;3.10;;;2.80;;
11125;SDS011;5617;54.046;10.676;2023-11-21T06:07:27;3.03;;;2.80;;
11125;SDS011;5617;54.046;10.676;2023-11-21T06:09:44;4.60;;;3.07;;
11125;SDS011;5617;54.046;10.676;2023-11-21T06:11:52;3.20;;;2.90;;
11125;SDS011;5617;54.046;10.676;2023-11-21T06:14:01;4.90;;;3.00;;
11125;SDS011;5617;54.046;10.676;2023-11-21T06:16:11;3.27;;;2.90;;
11125;SDS011;5617;54.046;10.676;2023-11-21T06:18:21;3.30;;;3.00;;
11125;SDS011;5617;54.046;10.676;2023-11-21T06:20:29;3.17;;;2.87;;
11125;SDS011;5617;54.046;10.676;2023-11-21T06:22:37;3.73;;;3.00;;
11125;SDS011;5617;54.046;10.676;2023-11-21T06:24:48;3.27;;;2.97;;
11125;SDS011;5617;54.046;10.676;2023-11-21T06:26:56;2.23;;;2.03;;
11125;SDS011;5617;54.046;10.676;2023-11-21T06:29:05;2.20;;;2.00;;
11125;SDS011;5617;54.046;10.676;2023-11-21T06:31:14;2.17;;;1.77;;
11125;SDS011;5617;54.046;10.676;2023-11-21T06:33:23;2.93;;;2.17;;
11125;SDS011;5617;54.046;10.676;2023-11-21T06:35:34;3.63;;;2.30;;
11125;SDS011;5617;54.046;10.676;2023-11-21T06:37:42;2.23;;;2.03;;
11125;SDS011;5617;54.046;10.676;2023-11-21T06:39:59;2.70;;;2.20;;
11125;SDS011;5617;54.046;10.676;2023-11-21T06:42:10;3.10;;;2.80;;
11125;SDS011;5617;54.046;10.676;2023-11-21T06:44:18;3.37;;;3.07;;
11125;SDS011;5617;54.046;10.676;2023-11-21T06:46:27;6.43;;;3.50;;
11125;SDS011;5617;54.046;10.676;2023-11-21T06:48:35;5.03;;;3.60;;
11125;SDS011;5617;54.046;10.676;2023-11-21T06:50:45;4.37;;;3.57;;
11125;SDS011;5617;54.046;10.676;2023-11-21T06:52:53;6.70;;;3.70;;
11125;SDS011;5617;54.046;10.676;2023-11-21T06:55:03;3.53;;;3.23;;
11125;SDS011;5617;54.046;10.676;2023-11-21T06:57:11;3.70;;;3.27;;
11125;SDS011;5617;54.046;10.676;2023-11-21T06:59:20;4.70;;;3.67;;
11125;SDS011;5617;54.046;10.676;2023-11-21T07:01:28;4.00;;;3.60;;
11125;SDS011;5617;54.046;10.676;2023-11-21T07:03:36;3.40;;;3.10;;
11125;SDS011;5617;54.046;10.676;2023-11-21T07:05:44;4.50;;;3.50;;
11125;SDS011;5617;54.046;10.676;2023-11-21T07:07:53;3.83;;;3.27;;
11125;SDS011;5617;54.046;10.676;2023-11-21T07:10:04;3.53;;;3.23;;
11125;SDS011;5617;54.046;10.676;2023-11-21T07:12:13;3.23;;;2.93;;
11125;SDS011;5617;54.046;10.676;2023-11-21T07:14:22;3.60;;;3.10;;
11125;SDS011;5617;54.046;10.676;2023-11-21T07:16:30;5.40;;;3.17;;
11125;SDS011;5617;54.046;10.676;2023-11-21T07:18:41;3.50;;;3.20;;
11125;SDS011;5617;54.046;10.676;2023-11-21T07:20:49;2.90;;;2.70;;
11125;SDS011;5617;54.046;10.676;2023-11-21T07:23:01;3.47;;;2.90;;
11125;SDS011;5617;54.046;10.676;2023-11-21T07:25:10;3.40;;;3.10;;
11125;SDS011;5617;54.046;10.676;2023-11-21T07:27:21;4.87;;;2.90;;
11125;SDS011;5617;54.046;10.676;2023-11-21T07:29:30;2.87;;;2.57;;
11125;SDS011;5617;54.046;10.676;2023-11-21T07:31:39;2.87;;;2.60;;
11125;SDS011;5617;54.046;10.676;2023-11-21T07:33:48;3.53;;;2.50;;
11125;SDS011;5617;54.046;10.676;2023-11-21T07:35:57;2.40;;;2.20;;
11125;SDS011;5617;54.046;10.676;2023-11-21T07:38:05;2.30;;;2.10;;
11125;SDS011;5617;54.046;10.676;2023-11-21T07:40:15;2.33;;;2.13;;
11125;SDS011;5617;54.046;10.676;2023-11-21T07:42:24;2.57;;;2.37;;
11125;SDS011;5617;54.046;10.676;2023-11-21T07:44:33;3.30;;;2.00;;
11125;SDS011;5617;54.046;10.676;2023-11-21T07:46:41;2.53;;;2.27;;
11125;SDS011;5617;54.046;10.676;2023-11-21T07:48:48;2.30;;;2.10;;
11125;SDS011;5617;54.046;10.676;2023-11-21T07:50:59;2.37;;;2.17;;
11125;SDS011;5617;54.046;10.676;2023-11-21T07:53:08;2.70;;;2.50;;
11125;SDS011;5617;54.046;10.676;2023-11-21T07:55:17;4.37;;;3.20;;
11125;SDS011;5617;54.046;10.676;2023-11-21T07:57:26;5.20;;;3.10;;
11125;SDS011;5617;54.046;10.676;2023-11-21T07:59:34;4.13;;;3.13;;
11125;SDS011;5617;54.046;10.676;2023-11-21T08:01:42;5.30;;;3.30;;
11125;SDS011;5617;54.046;10.676;2023-11-21T08:03:52;4.27;;;3.30;;
11125;SDS011;5617;54.046;10.676;2023-11-21T08:06:04;4.10;;;3.40;;
11125;SDS011;5617;54.046;10.676;2023-11-21T08:08:13;4.13;;;3.67;;
11125;SDS011;5617;54.046;10.676;2023-11-21T08:10:23;4.17;;;3.50;;
11125;SDS011;5617;54.046;10.676;2023-11-21T08:12:32;3.60;;;3.30;;
11125;SDS011;5617;54.046;10.676;2023-11-21T08:14:40;4.63;;;3.10;;
11125;SDS011;5617;54.046;10.676;2023-11-21T08:16:49;4.07;;;3.30;;
11125;SDS011;5617;54.046;10.676;2023-11-21T08:18:58;5.27;;;3.33;;
11125;SDS011;5617;54.046;10.676;2023-11-21T08:21:06;4.07;;;3.27;;
11125;SDS011;5617;54.046;10.676;2023-11-21T08:23:14;3.23;;;2.93;;
11125;SDS011;5617;54.046;10.676;2023-11-21T08:25:28;3.30;;;2.77;;
11125;SDS011;5617;54.046;10.676;2023-11-21T08:27:37;2.87;;;2.67;;
11125;SDS011;5617;54.046;10.676;2023-11-21T08:29:46;4.27;;;3.17;;
11125;SDS011;5617;54.046;10.676;2023-11-21T08:31:53;3.73;;;3.17;;
11125;SDS011;5617;54.046;10.676;2023-11-21T08:34:02;3.07;;;2.80;;
11125;SDS011;5617;54.046;10.676;2023-11-21T08:36:11;4.50;;;2.80;;
11125;SDS011;5617;54.046;10.676;2023-11-21T08:38:19;3.00;;;2.70;;
11125;SDS011;5617;54.046;10.676;2023-11-21T08:40:29;3.20;;;2.70;;
11125;SDS011;5617;54.046;10.676;2023-11-21T08:42:37;2.73;;;2.50;;
11125;SDS011;5617;54.046;10.676;2023-11-21T08:44:46;2.43;;;2.17;;
11125;SDS011;5617;54.046;10.676;2023-11-21T08:46:54;2.97;;;2.27;;
11125;SDS011;5617;54.046;10.676;2023-11-21T08:49:02;3.10;;;2.60;;
11125;SDS011;5617;54.046;10.676;2023-11-21T08:51:15;2.73;;;2.50;;
11125;SDS011;5617;54.046;10.676;2023-11-21T08:53:23;3.47;;;2.80;;
11125;SDS011;5617;54.046;10.676;2023-11-21T08:55:34;3.00;;;2.60;;
11125;SDS011;5617;54.046;10.676;2023-11-21T08:57:44;2.80;;;2.60;;
11125;SDS011;5617;54.046;10.676;2023-11-21T08:59:53;2.90;;;2.60;;
11125;SDS011;5617;54.046;10.676;2023-11-21T09:02:02;3.63;;;2.67;;
11125;SDS011;5617;54.046;10.676;2023-11-21T09:04:10;2.60;;;2.40;;
11125;SDS011;5617;54.046;10.676;2023-11-21T09:06:19;2.87;;;2.40;;
11125;SDS011;5617;54.046;10.676;2023-11-21T09:08:28;2.53;;;2.30;;
11125;SDS011;5617;54.046;10.676;2023-11-21T09:10:40;2.47;;;2.27;;
11125;SDS011;5617;54.046;10.676;2023-11-21T09:12:53;2.60;;;2.40;;
11125;SDS011;5617;54.046;10.676;2023-11-21T09:15:02;2.53;;;2.33;;
11125;SDS011;5617;54.046;10.676;2023-11-21T09:17:11;2.17;;;1.97;;
11125;SDS011;5617;54.046;10.676;2023-11-21T09:19:20;2.23;;;2.03;;
11125;SDS011;5617;54.046;10.676;2023-11-21T09:21:29;2.43;;;2.03;;
11125;SDS011;5617;54.046;10.676;2023-11-21T09:23:37;2.20;;;2.00;;
11125;SDS011;5617;54.046;10.676;2023-11-21T09:25:47;2.07;;;1.80;;
11125;SDS011;5617;54.046;10.676;2023-11-21T09:27:57;2.93;;;2.30;;
11125;SDS011;5617;54.046;10.676;2023-11-21T09:30:06;3.10;;;2.20;;
11125;SDS011;5617;54.046;10.676;2023-11-21T09:32:17;2.37;;;2.10;;
11125;SDS011;5617;54.046;10.676;2023-11-21T09:34:28;2.63;;;2.17;;
11125;SDS011;5617;54.046;10.676;2023-11-21T09:36:37;2.97;;;2.33;;
11125;SDS011;5617;54.046;10.676;2023-11-21T09:38:47;2.93;;;2.63;;
11125;SDS011;5617;54.046;10.676;2023-11-21T09:40:58;2.10;;;2.00;;
11125;SDS011;5617;54.046;10.676;2023-11-21T09:43:15;2.30;;;2.20;;
11125;SDS011;5617;54.046;10.676;2023-11-21T09:45:27;2.50;;;2.30;;
11125;SDS011;5617;54.046;10.676;2023-11-21T09:47:38;2.67;;;2.47;;
11125;SDS011;5617;54.046;10.676;2023-11-21T09:49:46;2.40;;;2.20;;
11125;SDS011;5617;54.046;10.676;2023-11-21T09:51:56;3.30;;;2.30;;
11125;SDS011;5617;54.046;10.676;2023-11-21T09:54:05;3.87;;;2.60;;
11125;SDS011;5617;54.046;10.676;2023-11-21T09:56:18;2.90;;;2.50;;
11125;SDS011;5617;54.046;10.676;2023-11-21T09:58:30;4.20;;;2.20;;
11125;SDS011;5617;54.046;10.676;2023-11-21T10:00:41;4.13;;;2.50;;
11125;SDS011;5617;54.046;10.676;2023-11-21T10:02:49;2.43;;;2.23;;
11125;SDS011;5617;54.046;10.676;2023-11-21T10:05:00;2.50;;;2.30;;
11125;SDS011;5617;54.046;10.676;2023-11-21T10:07:10;3.20;;;2.47;;
11125;SDS011;5617;54.046;10.676;2023-11-21T10:09:22;2.37;;;2.17;;
11125;SDS011;5617;54.046;10.676;2023-11-21T10:11:35;2.70;;;2.10;;
11125;SDS011;5617;54.046;10.676;2023-11-21T10:13:45;2.50;;;2.30;;
11125;SDS011;5617;54.046;10.676;2023-11-21T10:15:57;2.73;;;2.50;;
11125;SDS011;5617;54.046;10.676;2023-11-21T10:18:06;4.00;;;3.30;;
11125;SDS011;5617;54.046;10.676;2023-11-21T10:20:16;4.07;;;3.00;;
11125;SDS011;5617;54.046;10.676;2023-11-21T10:22:26;3.43;;;3.13;;
11125;SDS011;5617;54.046;10.676;2023-11-21T10:24:35;4.30;;;2.43;;
11125;SDS011;5617;54.046;10.676;2023-11-21T10:26:58;3.43;;;3.13;;
11125;SDS011;5617;54.046;10.676;2023-11-21T10:29:09;2.83;;;2.60;;
11125;SDS011;5617;54.046;10.676;2023-11-21T10:31:23;3.87;;;3.57;;
11125;SDS011;5617;54.046;10.676;2023-11-21T10:33:31;4.90;;;4.50;;
11125;SDS011;5617;54.046;10.676;2023-11-21T10:35:42;5.00;;;4.47;;
11125;SDS011;5617;54.046;10.676;2023-11-21T10:37:59;8.10;;;7.20;;
11125;SDS011;5617;54.046;10.676;2023-11-21T10:40:08;11.87;;;10.33;;
11125;SDS011;5617;54.046;10.676;2023-11-21T10:42:20;14.97;;;12.43;;
11125;SDS011;5617;54.046;10.676;2023-11-21T10:44:31;3.87;;;3.10;;
11125;SDS011;5617;54.046;10.676;2023-11-21T10:46:39;5.60;;;5.03;;
11125;SDS011;5617;54.046;10.676;2023-11-21T10:48:51;5.33;;;4.83;;
11125;SDS011;5617;54.046;10.676;2023-11-21T10:51:06;5.97;;;5.37;;
11125;SDS011;5617;54.046;10.676;2023-11-21T10:53:17;5.83;;;5.30;;
11125;SDS011;5617;54.046;10.676;2023-11-21T10:55:26;6.67;;;5.97;;
11125;SDS011;5617;54.046;10.676;2023-11-21T10:57:37;5.60;;;5.00;;
11125;SDS011;5617;54.046;10.676;2023-11-21T10:59:46;4.93;;;4.30;;
11125;SDS011;5617;54.046;10.676;2023-11-21T11:01:55;6.63;;;5.57;;
11125;SDS011;5617;54.046;10.676;2023-11-21T11:04:07;8.00;;;7.17;;
11125;SDS011;5617;54.046;10.676;2023-11-21T11:06:21;4.43;;;3.70;;
11125;SDS011;5617;54.046;10.676;2023-11-21T11:08:30;4.10;;;3.73;;
11125;SDS011;5617;54.046;10.676;2023-11-21T11:10:40;6.37;;;5.77;;
11125;SDS011;5617;54.046;10.676;2023-11-21T11:12:50;4.47;;;3.63;;
11125;SDS011;5617;54.046;10.676;2023-11-21T11:14:59;4.77;;;3.67;;
11125;SDS011;5617;54.046;10.676;2023-11-21T11:17:09;4.40;;;3.77;;
11125;SDS011;5617;54.046;10.676;2023-11-21T11:19:18;5.33;;;4.07;;
11125;SDS011;5617;54.046;10.676;2023-11-21T11:21:27;3.93;;;3.60;;
11125;SDS011;5617;54.046;10.676;2023-11-21T11:23:49;3.83;;;3.23;;
11125;SDS011;5617;54.046;10.676;2023-11-21T11:26:17;4.27;;;3.70;;
11125;SDS011;5617;54.046;10.676;2023-11-21T11:28:38;5.60;;;4.50;;
11125;SDS011;5617;54.046;10.676;2023-11-21T11:30:55;3.70;;;3.40;;
11125;SDS011;5617;54.046;10.676;2023-11-21T11:35:48;4.00;;;3.70;;
11125;SDS011;5617;54.046;10.676;2023-11-21T11:38:04;3.67;;;3.37;;
11125;SDS011;5617;54.046;10.676;2023-11-21T11:40:13;3.40;;;3.10;;
11125;SDS011;5617;54.046;10.676;2023-11-21T11:42:22;4.63;;;3.23;;
11125;SDS011;5617;54.046;10.676;2023-11-21T11:44:48;4.20;;;3.90;;
11125;SDS011;5617;54.046;10.676;2023-11-21T11:47:00;11.37;;;10.33;;
11125;SDS011;5617;54.046;10.676;2023-11-21T11:49:23;3.87;;;3.57;;
11125;SDS011;5617;54.046;10.676;2023-11-21T11:51:32;4.63;;;4.17;;
11125;SDS011;5617;54.046;10.676;2023-11-21T11:53:43;5.93;;;5.37;;
11125;SDS011;5617;54.046;10.676;2023-11-21T11:55:57;3.77;;;3.47;;
11125;SDS011;5617;54.046;10.676;2023-11-21T11:58:45;5.03;;;4.20;;
11125;SDS011;5617;54.046;10.676;2023-11-21T12:00:56;3.60;;;3.30;;
11125;SDS011;5617;54.046;10.676;2023-11-21T12:03:05;3.53;;;3.23;;
11125;SDS011;5617;54.046;10.676;2023-11-21T12:05:15;3.47;;;3.00;;
11125;SDS011;5617;54.046;10.676;2023-11-21T12:07:25;2.60;;;2.40;;
11125;SDS011;5617;54.046;10.676;2023-11-21T12:09:48;3.37;;;3.07;;
11125;SDS011;5617;54.046;10.676;2023-11-21T12:11:57;3.60;;;2.90;;
11125;SDS011;5617;54.046;10.676;2023-11-21T12:14:06;3.83;;;3.53;;
11125;SDS011;5617;54.046;10.676;2023-11-21T12:16:15;4.30;;;3.90;;
11125;SDS011;5617;54.046;10.676;2023-11-21T12:18:24;2.70;;;2.50;;
11125;SDS011;5617;54.046;10.676;2023-11-21T12:20:34;3.43;;;2.90;;
11125;SDS011;5617;54.046;10.676;2023-11-21T12:22:46;2.93;;;2.73;;
11125;SDS011;5617;54.046;10.676;2023-11-21T12:24:56;2.97;;;2.50;;
11125;SDS011;5617;54.046;10.676;2023-11-21T12:27:04;3.63;;;2.30;;
11125;SDS011;5617;54.046;10.676;2023-11-21T12:29:13;2.63;;;2.43;;
11125;SDS011;5617;54.046;10.676;2023-11-21T12:31:27;2.50;;;2.10;;
11125;SDS011;5617;54.046;10.676;2023-11-21T12:33:37;3.23;;;2.50;;
11125;SDS011;5617;54.046;10.676;2023-11-21T12:35:46;2.47;;;2.27;;
11125;SDS011;5617;54.046;10.676;2023-11-21T12:37:55;2.17;;;1.90;;
11125;SDS011;5617;54.046;10.676;2023-11-21T12:40:09;2.37;;;2.03;;
11125;SDS011;5617;54.046;10.676;2023-11-21T12:42:18;2.87;;;2.17;;
11125;SDS011;5617;54.046;10.676;2023-11-21T12:44:27;4.80;;;2.60;;
11125;SDS011;5617;54.046;10.676;2023-11-21T12:46:37;2.37;;;2.17;;
11125;SDS011;5617;54.046;10.676;2023-11-21T12:48:51;2.30;;;2.10;;
11125;SDS011;5617;54.046;10.676;2023-11-21T12:51:00;3.47;;;1.90;;
11125;SDS011;5617;54.046;10.676;2023-11-21T12:53:10;2.63;;;1.93;;
11125;SDS011;5617;54.046;10.676;2023-11-21T12:55:21;2.97;;;1.90;;
11125;SDS011;5617;54.046;10.676;2023-11-21T12:57:29;2.20;;;1.90;;
11125;SDS011;5617;54.046;10.676;2023-11-21T12:59:38;3.97;;;1.97;;
11125;SDS011;5617;54.046;10.676;2023-11-21T13:01:50;3.73;;;1.83;;
11125;SDS011;5617;54.046;10.676;2023-11-21T13:03:58;2.63;;;1.70;;
11125;SDS011;5617;54.046;10.676;2023-11-21T13:06:09;2.53;;;1.93;;